Time;durP1;ratioP1;P1;durP2;ratioP2;P2;SDS_P1;SDS_P2;PMS_P1;PMS_P2;Temp;Humidity;BMP_temperature;BMP_pressure;BME280_temperature;BME280_humidity;BME280_pressure;Samples;Min_cycle;Max_cycle;Signal;HPM_P1;HPM_P2
2022/02/24 00:00:29;;;;;;;1.73;0.60;;;9.80;55.90;;;;;;2290644;55;20966;-70
2022/02/24 00:02:58;;;;;;;1.73;0.60;;;9.90;56.20;;;;;;2287572;56;20944;-70
2022/02/24 00:05:27;;;;;;;2.87;0.70;;;9.90;55.90;;;;;;2290109;56;20985;-72
2022/02/24 00:08:17;;;;;;;2.00;0.80;;;9.90;55.90;;;;;;2288497;56;21008;-74
2022/02/24 00:10:43;;;;;;;2.33;0.80;;;9.90;56.10;;;;;;2291633;56;21062;-71
2022/02/24 00:13:25;;;;;;;2.03;0.85;;;9.90;55.80;;;;;;2288602;56;20956;-72
2022/02/24 00:15:52;;;;;;;2.70;0.70;;;9.90;56.60;;;;;;2288587;56;21338;-71
2022/02/24 00:18:23;;;;;;;2.30;0.80;;;9.90;55.80;;;;;;2507409;54;21245;-71
2022/02/24 00:20:49;;;;;;;1.77;0.70;;;10.00;55.00;;;;;;2291309;55;21068;-74
2022/02/24 00:23:16;;;;;;;2.17;0.60;;;10.00;55.00;;;;;;2323829;55;21734;-70
2022/02/24 00:25:42;;;;;;;2.40;0.80;;;9.90;55.90;;;;;;2291681;55;21370;-70
2022/02/24 00:28:10;;;;;;;2.72;0.70;;;10.00;55.10;;;;;;2328823;55;20961;-72
2022/02/24 00:30:36;;;;;;;1.48;0.70;;;10.00;55.20;;;;;;2286837;55;21022;-72
2022/02/24 00:33:02;;;;;;;2.15;0.70;;;10.00;55.20;;;;;;2449774;54;21402;-70
2022/02/24 00:35:29;;;;;;;1.62;0.80;;;10.00;55.30;;;;;;2442142;55;21002;-70
2022/02/24 00:37:55;;;;;;;1.80;0.73;;;10.00;55.30;;;;;;2410957;55;20992;-72
2022/02/24 00:40:22;;;;;;;1.85;0.85;;;10.10;55.40;;;;;;2288250;56;21373;-71
2022/02/24 00:42:49;;;;;;;2.30;0.80;;;10.10;55.40;;;;;;2288386;56;21032;-71
2022/02/24 00:45:21;;;;;;;1.87;0.90;;;10.10;55.40;;;;;;2288706;56;21057;-70
2022/02/24 00:47:47;;;;;;;2.87;1.00;;;10.10;55.40;;;;;;2294832;55;21012;-69
2022/02/24 00:50:14;;;;;;;2.35;0.80;;;10.10;55.30;;;;;;2288382;56;20994;-72
2022/02/24 00:52:41;;;;;;;1.45;0.57;;;10.10;55.20;;;;;;2292463;55;20925;-72
2022/02/24 00:55:09;;;;;;;2.20;0.70;;;10.10;55.20;;;;;;2292824;55;20969;-70
2022/02/24 00:57:36;;;;;;;2.33;0.80;;;10.10;55.10;;;;;;2313217;55;21122;-71
2022/02/24 01:00:06;;;;;;;2.83;0.77;;;10.20;55.20;;;;;;2288822;56;21028;-72
2022/02/24 01:02:33;;;;;;;2.37;0.80;;;10.10;55.10;;;;;;2288496;56;21469;-70
2022/02/24 01:05:01;;;;;;;2.53;0.60;;;10.20;55.20;;;;;;2289181;56;20952;-71
2022/02/24 01:07:27;;;;;;;1.83;0.62;;;10.10;55.50;;;;;;2318976;55;21016;-70
2022/02/24 01:09:53;;;;;;;2.92;0.75;;;10.10;55.10;;;;;;2288354;56;20957;-71
2022/02/24 01:12:47;;;;;;;3.30;0.90;;;10.10;55.10;;;;;;2520181;55;20945;-73
2022/02/24 01:15:14;;;;;;;2.65;0.62;;;10.10;55.30;;;;;;2281742;55;21614;-73
2022/02/24 01:17:40;;;;;;;2.40;0.88;;;10.10;55.10;;;;;;2287139;54;21555;-72
2022/02/24 01:20:07;;;;;;;3.42;1.10;;;10.10;55.10;;;;;;2287394;55;20988;-71
2022/02/24 01:22:34;;;;;;;2.37;0.90;;;10.10;55.10;;;;;;2313533;55;20963;-71
2022/02/24 01:25:00;;;;;;;2.05;0.90;;;10.00;55.10;;;;;;2288092;56;20973;-70
2022/02/24 01:27:30;;;;;;;2.30;0.98;;;10.00;55.10;;;;;;2318222;55;21106;-72
2022/02/24 01:29:58;;;;;;;2.60;0.82;;;10.00;55.10;;;;;;2283644;55;21026;-73
2022/02/24 01:32:25;;;;;;;2.10;0.90;;;10.00;55.10;;;;;;2471632;54;21028;-72
2022/02/24 01:34:58;;;;;;;1.85;0.75;;;10.00;55.20;;;;;;2289356;56;21958;-72
2022/02/24 01:37:25;;;;;;;2.37;0.77;;;10.00;55.20;;;;;;2289271;56;20953;-72
2022/02/24 01:39:52;;;;;;;1.87;0.60;;;10.00;55.30;;;;;;2288539;55;20944;-75
2022/02/24 01:42:19;;;;;;;1.37;0.50;;;10.00;55.30;;;;;;2483036;55;21430;-73
2022/02/24 01:44:46;;;;;;;2.35;0.98;;;10.00;55.40;;;;;;2292001;54;20958;-74
2022/02/24 01:47:13;;;;;;;1.70;0.90;;;10.00;55.40;;;;;;2517978;54;21676;-71
2022/02/24 01:49:40;;;;;;;1.65;0.70;;;10.00;55.50;;;;;;2294001;55;21012;-72
2022/02/24 01:52:07;;;;;;;1.80;0.70;;;10.00;56.10;;;;;;2288936;56;20933;-72
2022/02/24 01:54:36;;;;;;;2.62;0.60;;;10.00;55.50;;;;;;2346545;54;21006;-73
2022/02/24 01:57:03;;;;;;;1.90;0.70;;;10.00;55.50;;;;;;2277470;55;21001;-70
2022/02/24 01:59:30;;;;;;;1.40;0.50;;;10.00;55.50;;;;;;2523721;54;21814;-71
2022/02/24 02:01:56;;;;;;;1.45;0.50;;;10.00;55.50;;;;;;2317418;55;20920;-74
2022/02/24 02:04:23;;;;;;;1.48;0.60;;;10.10;55.60;;;;;;2337196;55;21042;-70
2022/02/24 02:06:51;;;;;;;1.50;0.60;;;10.00;55.50;;;;;;2420765;54;21822;-73
2022/02/24 02:09:18;;;;;;;1.75;0.65;;;10.00;55.40;;;;;;2523433;55;21056;-72
2022/02/24 02:11:44;;;;;;;1.87;0.70;;;10.00;55.40;;;;;;2289324;56;20940;-74
2022/02/24 02:14:13;;;;;;;2.12;0.80;;;10.00;55.30;;;;;;2487892;55;21005;-73
2022/02/24 02:16:47;;;;;;;1.40;0.57;;;10.10;56.00;;;;;;2291802;55;21016;-73
2022/02/24 02:19:13;;;;;;;3.65;0.88;;;10.10;55.50;;;;;;2291072;55;21046;-73
2022/02/24 02:21:40;;;;;;;1.48;0.60;;;10.00;55.30;;;;;;2288573;56;21083;-70
2022/02/24 02:24:06;;;;;;;1.92;0.65;;;10.00;55.30;;;;;;2374240;55;21064;-70
2022/02/24 02:26:33;;;;;;;1.75;0.60;;;10.00;55.30;;;;;;2291056;55;21103;-70
2022/02/24 02:29:00;;;;;;;1.02;0.50;;;10.00;55.20;;;;;;2287115;55;21048;-71
2022/02/24 02:31:27;;;;;;;1.30;0.60;;;9.90;56.00;;;;;;2445096;54;20988;-71
2022/02/24 02:34:07;;;;;;;1.90;0.60;;;9.90;56.00;;;;;;2292593;55;20972;-70
2022/02/24 02:36:56;;;;;;;1.87;0.80;;;9.90;56.10;;;;;;2289820;56;21779;-72
2022/02/24 02:39:22;;;;;;;1.50;0.60;;;9.90;56.10;;;;;;2376187;55;21454;-73
2022/02/24 02:41:49;;;;;;;1.90;0.70;;;9.80;55.90;;;;;;2288946;56;20949;-72
2022/02/24 02:44:18;;;;;;;1.02;0.43;;;9.80;55.90;;;;;;2305692;55;20941;-71
2022/02/24 02:46:45;;;;;;;1.15;0.40;;;9.80;55.90;;;;;;2288838;56;21486;-70
2022/02/24 02:52:45;;;;;;;1.25;0.52;;;9.70;55.90;;;;;;2288824;56;21031;-71
2022/02/24 02:55:11;;;;;;;1.30;0.55;;;9.70;55.70;;;;;;2315710;55;20949;-71
2022/02/24 02:57:39;;;;;;;1.60;0.50;;;9.60;55.70;;;;;;2340235;55;20959;-70
2022/02/24 03:00:07;;;;;;;1.05;0.52;;;9.60;55.70;;;;;;2374636;55;20960;-73
2022/02/24 03:02:36;;;;;;;1.37;0.60;;;9.50;55.60;;;;;;2290767;55;21073;-71
2022/02/24 03:05:06;;;;;;;1.85;0.60;;;9.50;55.60;;;;;;2519444;54;20989;-72
2022/02/24 03:07:32;;;;;;;1.55;0.60;;;9.40;55.50;;;;;;2268925;56;21494;-72
2022/02/24 03:09:59;;;;;;;1.77;0.65;;;9.40;55.50;;;;;;2345655;55;20901;-69
2022/02/24 03:12:27;;;;;;;1.67;0.60;;;9.40;55.50;;;;;;2288218;56;20940;-70
2022/02/24 03:14:53;;;;;;;1.90;0.70;;;9.30;55.40;;;;;;2313406;55;20978;-71
2022/02/24 03:17:22;;;;;;;2.30;0.80;;;9.20;55.40;;;;;;2279656;54;20988;-70
2022/02/24 03:19:50;;;;;;;1.98;0.90;;;9.20;55.40;;;;;;2361105;54;20932;-71
2022/02/24 03:22:16;;;;;;;2.05;0.88;;;9.10;55.40;;;;;;2286473;55;21073;-72
2022/02/24 03:24:45;;;;;;;2.45;0.90;;;9.10;55.40;;;;;;2450737;55;21513;-72
2022/02/24 03:27:12;;;;;;;2.10;0.90;;;9.00;55.40;;;;;;2287808;55;21032;-72
2022/02/24 03:29:39;;;;;;;2.37;1.05;;;9.00;55.40;;;;;;2403629;54;21041;-73
2022/02/24 03:32:06;;;;;;;2.97;1.10;;;8.90;55.40;;;;;;2289739;55;1877164;-72
2022/02/24 03:34:32;;;;;;;2.97;1.27;;;8.90;55.60;;;;;;2287464;55;20902;-69
2022/02/24 03:36:59;;;;;;;3.50;1.50;;;8.80;55.50;;;;;;2289513;55;20945;-69
2022/02/24 03:39:25;;;;;;;3.28;1.55;;;8.80;55.60;;;;;;2407135;54;21062;-72
2022/02/24 03:41:52;;;;;;;3.90;1.70;;;8.80;55.80;;;;;;2391987;54;20938;-69
2022/02/24 03:44:18;;;;;;;4.28;1.87;;;8.70;55.70;;;;;;2423827;54;21001;-72
2022/02/24 03:46:46;;;;;;;3.37;1.55;;;8.70;55.80;;;;;;2288078;56;21403;-71
2022/02/24 03:49:12;;;;;;;3.20;1.50;;;8.70;55.80;;;;;;2326376;55;20961;-71
2022/02/24 03:51:39;;;;;;;3.70;1.62;;;8.60;55.70;;;;;;2286338;55;21030;-73
2022/02/24 03:54:06;;;;;;;3.95;1.75;;;8.60;55.80;;;;;;2310408;54;20944;-71
2022/02/24 03:56:32;;;;;;;4.55;1.73;;;8.50;55.70;;;;;;2298784;55;21032;-70
2022/02/24 03:59:00;;;;;;;5.12;1.83;;;8.50;55.80;;;;;;2305880;54;21063;-71
2022/02/24 04:01:32;;;;;;;4.47;1.70;;;8.50;55.80;;;;;;2356285;54;20992;-72
2022/02/24 04:03:58;;;;;;;3.77;1.73;;;8.50;56.00;;;;;;2372088;55;20961;-69
2022/02/24 04:06:25;;;;;;;3.42;1.55;;;8.40;55.90;;;;;;2289059;56;21749;-70
2022/02/24 04:08:52;;;;;;;6.15;1.92;;;8.40;56.00;;;;;;2470014;55;20982;-71
2022/02/24 04:11:19;;;;;;;3.47;1.70;;;8.40;56.00;;;;;;2498130;54;21021;-70
2022/02/24 04:13:54;;;;;;;4.50;1.87;;;8.40;56.70;;;;;;2523152;55;20917;-71
2022/02/24 04:16:22;;;;;;;3.25;1.40;;;8.40;56.20;;;;;;2257028;56;20953;-73
2022/02/24 04:18:48;;;;;;;3.10;1.45;;;8.30;56.00;;;;;;2523836;55;20956;-72
2022/02/24 04:21:15;;;;;;;4.40;1.73;;;8.30;56.00;;;;;;2289401;56;21437;-74
2022/02/24 04:23:41;;;;;;;3.70;1.70;;;8.30;56.10;;;;;;2339179;55;21770;-70
2022/02/24 04:26:08;;;;;;;3.78;1.87;;;8.30;56.00;;;;;;2289422;56;21505;-71
2022/02/24 04:28:35;;;;;;;3.37;1.65;;;8.30;56.10;;;;;;2288708;56;20964;-71
2022/02/24 04:31:02;;;;;;;3.62;1.60;;;8.20;56.00;;;;;;2288727;55;21010;-73
2022/02/24 04:33:53;;;;;;;4.43;1.52;;;8.20;56.10;;;;;;2408624;55;20969;-70
2022/02/24 04:36:19;;;;;;;3.12;1.27;;;8.20;56.30;;;;;;2291343;55;20957;-69
2022/02/24 04:38:48;;;;;;;3.28;1.48;;;8.10;56.00;;;;;;2294375;55;21340;-71
2022/02/24 04:41:15;;;;;;;2.72;1.20;;;8.10;56.00;;;;;;2323487;55;20929;-70
2022/02/24 04:43:45;;;;;;;2.92;1.33;;;8.10;56.00;;;;;;2404759;55;20949;-73
2022/02/24 04:46:14;;;;;;;2.50;1.20;;;8.10;56.00;;;;;;2288826;55;21082;-70
2022/02/24 04:48:41;;;;;;;3.55;1.37;;;8.00;56.00;;;;;;2289721;55;20930;-73
2022/02/24 04:51:07;;;;;;;3.03;1.27;;;8.00;56.00;;;;;;2287520;55;20953;-74
2022/02/24 04:53:33;;;;;;;3.12;1.50;;;7.90;55.90;;;;;;2304040;54;21328;-71
2022/02/24 04:56:00;;;;;;;2.90;1.23;;;7.90;55.90;;;;;;2292728;55;21140;-70
2022/02/24 04:58:26;;;;;;;3.33;1.40;;;7.90;55.90;;;;;;2436201;54;21514;-70
2022/02/24 05:00:54;;;;;;;3.03;1.30;;;7.80;55.90;;;;;;2277736;55;20921;-72
2022/02/24 05:03:20;;;;;;;3.80;1.50;;;7.80;55.90;;;;;;2432418;55;20954;-71
2022/02/24 05:05:47;;;;;;;2.92;1.30;;;7.70;55.80;;;;;;2278701;55;21106;-71
2022/02/24 05:08:13;;;;;;;3.30;1.30;;;7.70;55.80;;;;;;2289284;56;20945;-71
2022/02/24 05:10:40;;;;;;;2.95;1.27;;;7.70;55.90;;;;;;2292163;55;21027;-71
2022/02/24 05:13:07;;;;;;;3.00;1.40;;;7.60;55.80;;;;;;2269314;55;21095;-69
2022/02/24 05:15:34;;;;;;;3.28;1.33;;;7.60;55.90;;;;;;2288796;55;20941;-70
2022/02/24 05:18:00;;;;;;;2.62;1.25;;;7.60;56.00;;;;;;2357628;55;20965;-72
2022/02/24 05:20:29;;;;;;;2.62;1.20;;;7.50;55.90;;;;;;2288946;56;21039;-70
2022/02/24 05:22:55;;;;;;;2.90;1.05;;;7.50;55.90;;;;;;2524488;54;21059;-70
2022/02/24 05:25:23;;;;;;;2.78;1.00;;;7.50;55.90;;;;;;2290372;55;21041;-70
2022/02/24 05:27:50;;;;;;;2.87;1.20;;;7.40;55.90;;;;;;2519202;55;21802;-72
2022/02/24 05:30:17;;;;;;;3.03;1.20;;;7.40;56.50;;;;;;2468960;55;20948;-71
2022/02/24 05:32:44;;;;;;;2.58;1.20;;;7.40;56.00;;;;;;2288487;56;20934;-70
2022/02/24 05:35:10;;;;;;;2.80;1.40;;;7.30;55.90;;;;;;2290776;55;21900;-72
2022/02/24 05:37:38;;;;;;;4.60;2.55;;;7.30;55.90;;;;;;2286715;55;20940;-72
2022/02/24 05:40:17;;;;;;;4.20;2.30;;;7.30;56.00;;;;;;2288367;55;21477;-70
2022/02/24 05:42:44;;;;;;;6.68;3.33;;;7.20;56.10;;;;;;2287946;56;21000;-72
2022/02/24 05:45:11;;;;;;;5.55;3.30;;;7.20;56.00;;;;;;2287317;54;21074;-72
2022/02/24 05:47:37;;;;;;;6.37;3.70;;;7.20;56.00;;;;;;2383306;55;21032;-74
2022/02/24 05:50:28;;;;;;;4.75;2.85;;;7.10;56.00;;;;;;2362811;54;21485;-72
2022/02/24 05:53:22;;;;;;;5.18;2.70;;;7.10;56.20;;;;;;2288101;56;21000;-71
2022/02/24 05:55:49;;;;;;;5.12;2.45;;;7.10;56.20;;;;;;2339934;54;20938;-70
2022/02/24 05:58:16;;;;;;;4.05;2.05;;;7.00;56.00;;;;;;2286534;54;20973;-71
2022/02/24 06:00:42;;;;;;;3.35;1.60;;;7.00;56.00;;;;;;2288202;56;21154;-72
2022/02/24 06:03:10;;;;;;;4.03;2.08;;;7.00;56.10;;;;;;2289143;56;20945;-74
2022/02/24 06:05:36;;;;;;;4.00;1.95;;;6.90;56.00;;;;;;2282340;56;20957;-69
2022/02/24 06:08:03;;;;;;;3.65;1.65;;;6.90;56.10;;;;;;2353495;54;21021;-69
2022/02/24 06:10:30;;;;;;;3.72;1.90;;;6.90;56.20;;;;;;2288382;55;21036;-71
2022/02/24 06:13:09;;;;;;;5.12;2.00;;;6.80;56.20;;;;;;2346717;55;20974;-69
2022/02/24 06:15:37;;;;;;;3.35;1.80;;;6.80;56.50;;;;;;2288944;55;21044;-72
2022/02/24 06:18:09;;;;;;;4.57;2.17;;;6.80;56.40;;;;;;2288550;55;20973;-72
2022/02/24 06:20:37;;;;;;;4.57;2.35;;;6.80;56.60;;;;;;2288395;55;21025;-71
2022/02/24 06:23:03;;;;;;;4.45;2.33;;;6.80;56.60;;;;;;2289116;55;20956;-71
2022/02/24 06:25:30;;;;;;;4.50;2.22;;;6.80;56.70;;;;;;2286020;55;21682;-68
2022/02/24 06:28:01;;;;;;;5.93;2.47;;;6.80;56.70;;;;;;2289173;56;21025;-72
2022/02/24 06:30:28;;;;;;;6.62;2.62;;;6.80;56.80;;;;;;2289300;56;20953;-70
2022/02/24 06:32:55;;;;;;;4.72;2.55;;;6.80;56.70;;;;;;2289393;55;21006;-72
2022/02/24 06:35:21;;;;;;;4.53;2.50;;;6.80;56.70;;;;;;2291350;55;21451;-69
2022/02/24 06:37:47;;;;;;;5.37;2.35;;;6.80;56.60;;;;;;2284655;55;20945;-72
2022/02/24 06:40:35;;;;;;;4.62;2.25;;;6.80;56.70;;;;;;2326215;55;20960;-70
2022/02/24 06:43:01;;;;;;;4.87;2.58;;;6.70;56.70;;;;;;2288533;55;20958;-69
2022/02/24 06:45:30;;;;;;;4.80;2.30;;;6.70;56.60;;;;;;2365416;55;20996;-70
2022/02/24 06:48:01;;;;;;;10.38;3.80;;;6.70;56.70;;;;;;2523902;54;20992;-73
2022/02/24 06:50:28;;;;;;;21.58;8.25;;;6.70;56.80;;;;;;2523288;54;20973;-71
2022/02/24 06:52:54;;;;;;;16.10;6.97;;;6.70;56.80;;;;;;2289507;55;21250;-72
2022/02/24 06:55:36;;;;;;;13.10;5.78;;;6.70;56.80;;;;;;2291004;55;21056;-70
2022/02/24 06:58:02;;;;;;;12.13;4.70;;;6.70;57.00;;;;;;2284309;55;20936;-69
2022/02/24 07:00:31;;;;;;;9.98;4.87;;;6.70;56.90;;;;;;2289403;56;21076;-72
2022/02/24 07:02:57;;;;;;;7.97;3.75;;;6.70;57.00;;;;;;2266249;56;21035;-71
2022/02/24 07:05:24;;;;;;;6.85;3.62;;;6.70;57.00;;;;;;2288648;56;21034;-70
2022/02/24 07:07:50;;;;;;;6.15;2.95;;;6.70;57.00;;;;;;2287438;56;21080;-71
2022/02/24 07:10:20;;;;;;;6.22;2.87;;;6.70;57.10;;;;;;2288592;56;20952;-70
2022/02/24 07:13:02;;;;;;;9.20;4.80;;;6.70;57.10;;;;;;2287268;54;20970;-70
2022/02/24 07:15:28;;;;;;;10.55;4.53;;;6.70;57.40;;;;;;2380705;55;21078;-69
2022/02/24 07:17:55;;;;;;;9.40;5.10;;;6.70;57.30;;;;;;2292539;55;21014;-71
2022/02/24 07:20:22;;;;;;;11.77;5.62;;;6.80;57.50;;;;;;2286747;55;21016;-70
2022/02/24 07:22:48;;;;;;;10.98;5.65;;;6.80;57.50;;;;;;2289203;55;21000;-70
2022/02/24 07:25:16;;;;;;;9.23;5.82;;;6.80;57.70;;;;;;2287874;56;20964;-71
2022/02/24 07:27:43;;;;;;;11.40;6.15;;;6.90;57.80;;;;;;2288389;56;20932;-69
2022/02/24 07:30:10;;;;;;;9.07;5.22;;;6.90;57.90;;;;;;2288964;56;20996;-72
2022/02/24 07:32:36;;;;;;;9.00;5.43;;;7.00;58.10;;;;;;2287920;55;20984;-73
2022/02/24 07:35:03;;;;;;;6.85;4.40;;;7.00;58.10;;;;;;2354819;54;21578;-71
2022/02/24 07:37:29;;;;;;;7.00;4.05;;;7.00;58.10;;;;;;2434050;55;21405;-70
2022/02/24 07:39:56;;;;;;;6.72;4.43;;;7.10;58.20;;;;;;2359928;55;20940;-69
2022/02/24 07:42:22;;;;;;;6.40;4.50;;;7.20;58.30;;;;;;2289230;56;20944;-70
2022/02/24 07:44:50;;;;;;;7.55;4.45;;;7.30;58.50;;;;;;2288701;56;20988;-73
2022/02/24 07:47:17;;;;;;;7.12;4.45;;;7.30;58.50;;;;;;2288986;56;20961;-71
2022/02/24 07:49:43;;;;;;;6.60;4.15;;;7.40;58.60;;;;;;2288564;56;21379;-71
2022/02/24 07:52:15;;;;;;;6.57;4.32;;;7.50;58.80;;;;;;2289646;56;20940;-71
2022/02/24 07:54:44;;;;;;;6.07;3.40;;;7.60;59.00;;;;;;2288748;56;20988;-73
2022/02/24 07:57:11;;;;;;;6.60;3.33;;;7.60;59.10;;;;;;2288833;56;21036;-72
2022/02/24 07:59:37;;;;;;;6.82;3.50;;;7.70;59.20;;;;;;2292406;55;21084;-71
2022/02/24 08:02:04;;;;;;;6.80;4.30;;;7.80;59.30;;;;;;2288968;55;21036;-73
2022/02/24 08:04:30;;;;;;;6.82;3.78;;;7.90;59.50;;;;;;2288773;55;21607;-72
2022/02/24 08:06:58;;;;;;;9.23;6.22;;;8.10;59.70;;;;;;2289054;56;20952;-70
2022/02/24 08:09:25;;;;;;;6.47;4.60;;;8.20;59.80;;;;;;2288317;56;20984;-74
2022/02/24 08:14:36;;;;;;;4.60;2.75;;;8.40;60.00;;;;;;2290829;56;20980;-72
2022/02/24 08:17:04;;;;;;;3.92;2.17;;;8.60;60.10;;;;;;2288579;56;21004;-72
2022/02/24 08:19:31;;;;;;;3.95;1.98;;;8.70;60.30;;;;;;2288811;56;20961;-72
2022/02/24 08:21:58;;;;;;;4.07;1.65;;;8.90;60.50;;;;;;2291996;55;21010;-73
2022/02/24 08:24:26;;;;;;;3.83;1.30;;;9.00;60.60;;;;;;2277677;55;21481;-71
2022/02/24 08:26:52;;;;;;;2.50;1.20;;;9.20;60.70;;;;;;2288566;56;21850;-73
2022/02/24 08:29:19;;;;;;;2.50;1.20;;;9.40;60.70;;;;;;2289144;56;21037;-71
2022/02/24 08:31:45;;;;;;;3.08;1.30;;;9.50;60.60;;;;;;2288238;56;20964;-70
2022/02/24 08:34:12;;;;;;;4.65;1.50;;;9.60;60.50;;;;;;2524100;55;21033;-71
2022/02/24 08:36:39;;;;;;;3.50;1.30;;;9.80;60.50;;;;;;2288491;55;21071;-70
2022/02/24 08:39:05;;;;;;;2.45;1.27;;;9.90;60.30;;;;;;2406568;55;21049;-73
2022/02/24 08:41:35;;;;;;;2.72;1.23;;;10.00;59.30;;;;;;2284855;55;20948;-72
2022/02/24 08:44:05;;;;;;;3.40;1.55;;;10.10;59.30;;;;;;2288924;56;21740;-70
2022/02/24 08:46:31;;;;;;;3.33;1.50;;;10.30;59.30;;;;;;2289132;56;20944;-72
2022/02/24 08:48:58;;;;;;;3.17;1.50;;;10.40;59.30;;;;;;2295106;55;20982;-72
2022/02/24 08:51:24;;;;;;;3.78;2.05;;;10.50;59.30;;;;;;2279097;55;20936;-70
2022/02/24 08:53:51;;;;;;;3.92;1.77;;;10.60;59.30;;;;;;2288521;55;20956;-71
2022/02/24 08:56:17;;;;;;;4.22;2.30;;;10.70;59.30;;;;;;2266534;55;21021;-73
2022/02/24 08:58:44;;;;;;;5.82;3.22;;;10.90;59.60;;;;;;2390175;54;21045;-74
2022/02/24 09:01:10;;;;;;;6.62;2.90;;;10.90;59.70;;;;;;2288455;55;20944;-71
2022/02/24 09:03:37;;;;;;;6.03;2.50;;;11.10;60.00;;;;;;2288944;56;20965;-71
2022/02/24 09:06:05;;;;;;;5.55;2.40;;;11.40;60.80;;;;;;2523522;54;21496;-71
2022/02/24 09:08:32;;;;;;;4.53;2.22;;;11.60;61.70;;;;;;2291390;55;21034;-71
2022/02/24 09:10:59;;;;;;;6.40;2.62;;;11.90;62.10;;;;;;2286133;55;21000;-70
2022/02/24 09:13:25;;;;;;;7.85;3.12;;;12.20;62.40;;;;;;2288206;56;20961;-71
2022/02/24 09:15:52;;;;;;;6.53;2.60;;;12.60;62.20;;;;;;2288925;56;20965;-72
2022/02/24 09:18:20;;;;;;;5.65;2.80;;;12.80;61.70;;;;;;2335797;55;21409;-72
2022/02/24 09:21:06;;;;;;;4.97;2.50;;;13.10;61.40;;;;;;2519914;55;20977;-74
2022/02/24 09:23:35;;;;;;;4.70;2.60;;;13.40;60.90;;;;;;2301669;55;20984;-72
2022/02/24 09:26:02;;;;;;;4.85;2.40;;;13.60;59.80;;;;;;2292962;55;21028;-73
2022/02/24 09:28:29;;;;;;;6.87;2.72;;;13.70;59.20;;;;;;2367947;55;20952;-71
2022/02/24 09:30:56;;;;;;;5.03;2.08;;;13.90;58.90;;;;;;2336314;55;21838;-73
2022/02/24 09:33:23;;;;;;;5.53;1.85;;;14.10;58.10;;;;;;2289223;55;20948;-75
2022/02/24 09:35:49;;;;;;;4.45;1.50;;;14.30;56.80;;;;;;2288333;56;20992;-71
2022/02/24 09:38:18;;;;;;;2.53;1.25;;;14.50;56.80;;;;;;2287432;56;20940;-73
2022/02/24 09:40:46;;;;;;;2.80;1.00;;;14.70;56.20;;;;;;2289298;56;20952;-73
2022/02/24 09:43:19;;;;;;;5.22;1.20;;;14.90;55.00;;;;;;2289080;56;21498;-73
2022/02/24 09:45:48;;;;;;;6.07;0.93;;;15.10;53.30;;;;;;2305167;55;21048;-73
2022/02/24 09:48:17;;;;;;;3.15;0.98;;;15.20;52.80;;;;;;2287855;55;21107;-75
2022/02/24 09:50:51;;;;;;;3.28;0.98;;;15.40;52.60;;;;;;2348736;55;20980;-75
2022/02/24 09:53:18;;;;;;;2.55;0.88;;;15.60;52.20;;;;;;2440822;55;20992;-74
2022/02/24 09:55:44;;;;;;;2.40;1.08;;;15.80;51.80;;;;;;2289580;56;21016;-73
2022/02/24 09:58:13;;;;;;;4.10;1.20;;;15.90;51.20;;;;;;2284684;56;21008;-74
2022/02/24 10:00:41;;;;;;;4.37;1.23;;;16.10;50.30;;;;;;2289066;56;20997;-74
2022/02/24 10:03:33;;;;;;;3.35;1.20;;;16.30;50.50;;;;;;2357617;54;20958;-73
2022/02/24 10:06:00;;;;;;;3.10;1.10;;;16.40;49.10;;;;;;2296791;55;21012;-74
2022/02/24 10:08:34;;;;;;;2.50;0.90;;;16.60;48.90;;;;;;2288739;55;21004;-74
2022/02/24 10:11:01;;;;;;;3.17;1.27;;;16.70;47.90;;;;;;2288656;55;20944;-74
2022/02/24 10:13:30;;;;;;;3.47;1.02;;;16.80;47.50;;;;;;2378011;54;21080;-75
2022/02/24 10:16:00;;;;;;;3.70;1.23;;;16.90;47.60;;;;;;2289495;56;20973;-73
2022/02/24 10:18:31;;;;;;;2.95;1.15;;;17.10;46.30;;;;;;2290204;56;20987;-73
2022/02/24 10:21:00;;;;;;;2.87;1.15;;;17.20;46.60;;;;;;2289225;56;21092;-73
2022/02/24 10:23:39;;;;;;;3.08;0.90;;;17.30;46.90;;;;;;2289682;56;21037;-74
2022/02/24 10:26:09;;;;;;;3.87;1.10;;;17.50;45.90;;;;;;2290991;55;21541;-72
2022/02/24 10:28:58;;;;;;;5.12;1.80;;;17.60;46.00;;;;;;2285370;54;21786;-73
2022/02/24 10:31:26;;;;;;;4.47;1.60;;;17.70;45.20;;;;;;2289451;56;21584;-73
2022/02/24 10:34:26;;;;;;;4.90;1.48;;;17.70;44.90;;;;;;2522080;55;20987;-74
2022/02/24 10:36:53;;;;;;;4.70;1.70;;;17.70;44.30;;;;;;2288033;55;20940;-72
2022/02/24 10:39:22;;;;;;;4.28;1.02;;;17.60;45.00;;;;;;2288824;56;21487;-72
2022/02/24 10:41:49;;;;;;;3.90;1.20;;;17.60;45.10;;;;;;2288560;56;21005;-73
2022/02/24 10:44:26;;;;;;;3.42;1.10;;;17.50;45.30;;;;;;2402245;55;21536;-74
2022/02/24 10:47:10;;;;;;;4.00;1.30;;;17.50;45.10;;;;;;2337387;55;20905;-74
2022/02/24 10:49:41;;;;;;;7.10;2.10;;;17.40;44.80;;;;;;2292048;56;21439;-73
2022/02/24 10:52:15;;;;;;;8.32;2.20;;;17.40;45.90;;;;;;2284634;54;20956;-73
2022/02/24 10:54:45;;;;;;;5.62;1.50;;;17.40;44.20;;;;;;2409156;55;21425;-75
2022/02/24 10:57:16;;;;;;;4.45;1.40;;;17.40;44.60;;;;;;2288413;55;20972;-73
2022/02/24 10:59:43;;;;;;;4.80;1.30;;;17.30;44.20;;;;;;2310514;55;21005;-73
2022/02/24 11:02:10;;;;;;;3.95;1.10;;;17.30;44.10;;;;;;2289152;56;21457;-74
2022/02/24 11:04:37;;;;;;;5.30;1.80;;;17.30;44.00;;;;;;2321002;55;21194;-74
2022/02/24 11:07:03;;;;;;;3.62;1.45;;;17.20;43.40;;;;;;2288278;55;20988;-73
2022/02/24 11:09:30;;;;;;;3.78;1.10;;;17.20;43.30;;;;;;2309127;55;21561;-73
2022/02/24 11:11:59;;;;;;;5.60;1.58;;;17.20;43.50;;;;;;2288555;56;20988;-74
2022/02/24 11:14:26;;;;;;;6.07;2.12;;;17.10;43.00;;;;;;2289357;56;21000;-73
2022/02/24 11:16:52;;;;;;;3.72;1.50;;;17.10;43.10;;;;;;2288964;56;21051;-74
2022/02/24 11:19:25;;;;;;;5.30;1.48;;;17.00;42.20;;;;;;2323790;55;21438;-73
2022/02/24 11:21:52;;;;;;;4.55;1.48;;;17.00;42.50;;;;;;2370350;55;21019;-74
2022/02/24 11:24:23;;;;;;;5.28;1.40;;;16.90;42.80;;;;;;2287915;55;20976;-73
2022/02/24 11:27:50;;;;;;;4.78;1.80;;;16.90;43.00;;;;;;2288074;56;21080;-73
2022/02/24 11:30:46;;;;;;;4.00;1.33;;;16.80;42.70;;;;;;2360483;54;21512;-73
2022/02/24 11:33:15;;;;;;;3.85;1.42;;;16.80;42.70;;;;;;2289119;56;20977;-73
2022/02/24 11:35:41;;;;;;;3.42;1.10;;;16.80;43.00;;;;;;2325267;55;21003;-73
2022/02/24 11:38:17;;;;;;;4.40;1.50;;;16.70;42.10;;;;;;2288330;55;21005;-73
2022/02/24 11:40:43;;;;;;;4.82;1.40;;;16.60;41.80;;;;;;2369135;55;21479;-73
2022/02/24 11:43:19;;;;;;;4.40;1.52;;;16.60;42.30;;;;;;2287742;55;21359;-73
2022/02/24 11:46:28;;;;;;;5.53;1.87;;;16.50;42.40;;;;;;2288573;56;21007;-72
2022/02/24 11:48:56;;;;;;;4.57;1.70;;;16.40;42.00;;;;;;2289624;55;20941;-73
2022/02/24 11:51:22;;;;;;;4.93;1.65;;;16.40;42.60;;;;;;2302217;55;21859;-73
2022/02/24 11:53:52;;;;;;;5.57;1.48;;;16.30;42.90;;;;;;2392692;55;20984;-73
2022/02/24 11:56:21;;;;;;;4.32;1.40;;;16.30;43.20;;;;;;2306682;55;20945;-72
2022/02/24 11:58:59;;;;;;;5.03;1.70;;;16.30;43.60;;;;;;2288892;56;21553;-73
2022/02/24 12:01:52;;;;;;;3.65;1.40;;;16.30;43.80;;;;;;2391849;55;21044;-73
2022/02/24 12:04:29;;;;;;;5.85;1.75;;;16.40;43.70;;;;;;2288797;56;20972;-73
2022/02/24 12:07:18;;;;;;;4.30;1.50;;;16.40;43.40;;;;;;2289557;56;20968;-73
2022/02/24 12:09:48;;;;;;;5.28;1.48;;;16.40;43.40;;;;;;2463158;55;21040;-73
2022/02/24 12:12:23;;;;;;;4.47;1.17;;;16.40;43.60;;;;;;2319303;54;21821;-73
2022/02/24 12:15:24;;;;;;;5.43;1.52;;;16.40;43.50;;;;;;2289046;55;21473;-72
2022/02/24 12:17:51;;;;;;;9.30;2.00;;;16.40;43.60;;;;;;2363395;55;21282;-72
2022/02/24 12:20:24;;;;;;;4.28;1.45;;;16.50;43.60;;;;;;2282166;55;21017;-73
2022/02/24 12:22:53;;;;;;;4.65;1.50;;;16.50;43.70;;;;;;2346722;55;21447;-73
2022/02/24 12:25:24;;;;;;;5.95;1.67;;;16.50;43.70;;;;;;2289200;56;20957;-73
2022/02/24 12:28:06;;;;;;;4.90;1.95;;;16.50;43.50;;;;;;2405581;54;20972;-73
2022/02/24 12:30:37;;;;;;;4.87;1.80;;;16.50;43.40;;;;;;2266745;56;21013;-73
2022/02/24 12:33:16;;;;;;;5.47;2.20;;;16.50;43.80;;;;;;2335516;55;21025;-72
2022/02/24 12:35:44;;;;;;;5.78;2.10;;;16.50;43.20;;;;;;2370239;55;20960;-73
2022/02/24 12:38:12;;;;;;;5.72;1.77;;;16.50;43.20;;;;;;2443027;55;20950;-72
2022/02/24 12:41:19;;;;;;;9.88;2.37;;;16.50;43.30;;;;;;2287636;54;20985;-73
2022/02/24 12:44:23;;;;;;;5.43;2.00;;;16.50;43.20;;;;;;2289050;56;21312;-73
2022/02/24 12:46:49;;;;;;;4.55;1.70;;;16.50;43.20;;;;;;2289116;56;21449;-72
2022/02/24 12:49:27;;;;;;;6.68;2.22;;;16.50;43.70;;;;;;2295202;55;20963;-73
2022/02/24 12:51:58;;;;;;;4.82;1.80;;;16.50;43.50;;;;;;2522606;55;21118;-73
2022/02/24 12:54:26;;;;;;;4.22;1.60;;;16.40;43.60;;;;;;2401902;54;20936;-72
2022/02/24 12:56:52;;;;;;;5.57;1.70;;;16.50;43.60;;;;;;2308568;55;20972;-73
2022/02/24 12:59:19;;;;;;;3.72;1.23;;;16.50;43.80;;;;;;2365998;55;21024;-72
2022/02/24 13:01:50;;;;;;;4.93;1.50;;;16.50;43.80;;;;;;2368850;55;20925;-72
2022/02/24 13:04:38;;;;;;;5.28;1.27;;;16.40;44.00;;;;;;2369347;55;20950;-73
2022/02/24 13:07:04;;;;;;;4.60;1.37;;;16.50;43.70;;;;;;2290720;55;20950;-73
2022/02/24 13:09:46;;;;;;;4.47;1.75;;;16.50;44.10;;;;;;2316612;55;21085;-72